UAL2112 KLAX-KSFO
Flight info
| Callsign | UAL2112 |
|---|---|
| Flight time | N/A |
| Altitude | 32000 |
| Route | SUMMR2 STOKD SERFR SERFR4 |
| Aircraft | B772/H-SDE2E3FGHIJ5LORVWXY/LB1D1 |
Departure
| Time | 2026-04-26 01:15 |
|---|---|
| Airport | Los Angeles International Airport (KLAX) |
Arrival
| Time | N/A |
|---|---|
| Airport | San Francisco International Airport (KSFO) |
| Time | Latitude | Longitude | Altitude | Speed | Heading |
|---|---|---|---|---|---|
| 2026-04-25 23:58 | 33.94007 | -118.40135 | 127 ft | 0 kts | 312° |
| 2026-04-26 00:47 | 33.94002 | -118.40129 | 127 ft | 2 kts | 312° |
| 2026-04-26 00:47 | 33.93995 | -118.40120 | 127 ft | 1 kts | 312° |
| 2026-04-26 00:47 | 33.93986 | -118.40107 | 126 ft | 2 kts | 306° |
| 2026-04-26 00:47 | 33.93978 | -118.40092 | 126 ft | 2 kts | 298° |
| 2026-04-26 00:48 | 33.93972 | -118.40076 | 126 ft | 2 kts | 291° |
| 2026-04-26 00:48 | 33.93967 | -118.40058 | 126 ft | 2 kts | 284° |
| 2026-04-26 00:48 | 33.93964 | -118.40041 | 126 ft | 2 kts | 277° |
| 2026-04-26 00:48 | 33.93963 | -118.40023 | 125 ft | 2 kts | 270° |
| 2026-04-26 00:49 | 33.93963 | -118.40005 | 125 ft | 1 kts | 263° |
| 2026-04-26 00:49 | 33.93964 | -118.40001 | 125 ft | 0 kts | 262° |
| 2026-04-26 00:55 | 33.93963 | -118.40009 | 125 ft | 2 kts | 262° |
| 2026-04-26 00:55 | 33.93961 | -118.40031 | 126 ft | 5 kts | 262° |
| 2026-04-26 00:56 | 33.93957 | -118.40054 | 126 ft | 7 kts | 261° |
| 2026-04-26 00:56 | 33.93949 | -118.40126 | 126 ft | 10 kts | 262° |
| 2026-04-26 00:56 | 33.93940 | -118.40205 | 128 ft | 8 kts | 263° |
| 2026-04-26 00:56 | 33.93933 | -118.40276 | 129 ft | 8 kts | 263° |
| 2026-04-26 00:57 | 33.93927 | -118.40343 | 129 ft | 8 kts | 264° |
| 2026-04-26 00:57 | 33.93920 | -118.40408 | 130 ft | 7 kts | 263° |
| 2026-04-26 00:57 | 33.93914 | -118.40467 | 131 ft | 7 kts | 263° |
| 2026-04-26 00:57 | 33.93906 | -118.40539 | 132 ft | 9 kts | 263° |
| 2026-04-26 00:58 | 33.93897 | -118.40625 | 132 ft | 10 kts | 262° |
| 2026-04-26 00:58 | 33.93887 | -118.40711 | 133 ft | 10 kts | 262° |
| 2026-04-26 00:58 | 33.93878 | -118.40801 | 133 ft | 11 kts | 264° |
| 2026-04-26 00:58 | 33.93869 | -118.40897 | 134 ft | 11 kts | 263° |
| 2026-04-26 00:59 | 33.93860 | -118.40987 | 134 ft | 10 kts | 263° |
| 2026-04-26 00:59 | 33.93852 | -118.41071 | 133 ft | 9 kts | 263° |
| 2026-04-26 00:59 | 33.93844 | -118.41151 | 133 ft | 9 kts | 263° |
| 2026-04-26 00:59 | 33.93844 | -118.41227 | 133 ft | 9 kts | 291° |
| 2026-04-26 01:00 | 33.93894 | -118.41267 | 133 ft | 9 kts | 347° |
| 2026-04-26 01:00 | 33.93957 | -118.41279 | 132 ft | 9 kts | 353° |
| 2026-04-26 01:00 | 33.94022 | -118.41289 | 132 ft | 10 kts | 353° |
| 2026-04-26 01:00 | 33.94097 | -118.41300 | 131 ft | 11 kts | 353° |
| 2026-04-26 01:01 | 33.94180 | -118.41313 | 131 ft | 12 kts | 353° |
| 2026-04-26 01:01 | 33.94268 | -118.41327 | 130 ft | 12 kts | 353° |
| 2026-04-26 01:01 | 33.94360 | -118.41341 | 130 ft | 13 kts | 352° |
| 2026-04-26 01:01 | 33.94449 | -118.41356 | 130 ft | 12 kts | 352° |
| 2026-04-26 01:02 | 33.94533 | -118.41368 | 130 ft | 12 kts | 353° |
| 2026-04-26 01:02 | 33.94575 | -118.41373 | 130 ft | 7 kts | 353° |
| 2026-04-26 01:02 | 33.94635 | -118.41382 | 130 ft | 9 kts | 353° |
| 2026-04-26 01:02 | 33.94706 | -118.41390 | 130 ft | 9 kts | 354° |
| 2026-04-26 01:03 | 33.94770 | -118.41375 | 130 ft | 11 kts | 44° |
| 2026-04-26 01:03 | 33.94793 | -118.41308 | 130 ft | 9 kts | 81° |
| 2026-04-26 01:03 | 33.94803 | -118.41220 | 130 ft | 11 kts | 83° |
| 2026-04-26 01:03 | 33.94814 | -118.41116 | 131 ft | 13 kts | 83° |
| 2026-04-26 01:04 | 33.94826 | -118.41000 | 131 ft | 13 kts | 83° |
| 2026-04-26 01:04 | 33.94814 | -118.40901 | 130 ft | 11 kts | 131° |
| 2026-04-26 01:04 | 33.94766 | -118.40908 | 130 ft | 5 kts | 227° |
| 2026-04-26 01:04 | 33.94749 | -118.40957 | 130 ft | 7 kts | 257° |
| 2026-04-26 01:05 | 33.94740 | -118.41026 | 131 ft | 9 kts | 262° |
| 2026-04-26 01:05 | 33.94730 | -118.41108 | 130 ft | 10 kts | 262° |
| 2026-04-26 01:05 | 33.94720 | -118.41165 | 130 ft | 0 kts | 253° |
| 2026-04-26 01:09 | 33.94718 | -118.41176 | 130 ft | 4 kts | 253° |
| 2026-04-26 01:09 | 33.94709 | -118.41237 | 130 ft | 8 kts | 278° |
| 2026-04-26 01:09 | 33.94742 | -118.41284 | 130 ft | 8 kts | 340° |
| 2026-04-26 01:09 | 33.94790 | -118.41258 | 130 ft | 9 kts | 63° |
| 2026-04-26 01:10 | 33.94808 | -118.41180 | 130 ft | 9 kts | 80° |
| 2026-04-26 01:10 | 33.94817 | -118.41101 | 131 ft | 9 kts | 83° |
| 2026-04-26 01:10 | 33.94825 | -118.41023 | 131 ft | 9 kts | 83° |
| 2026-04-26 01:10 | 33.94832 | -118.40945 | 131 ft | 9 kts | 83° |
| 2026-04-26 01:11 | 33.94840 | -118.40867 | 130 ft | 9 kts | 84° |
| 2026-04-26 01:11 | 33.94847 | -118.40790 | 130 ft | 9 kts | 83° |
| 2026-04-26 01:11 | 33.94855 | -118.40709 | 130 ft | 9 kts | 83° |
| 2026-04-26 01:11 | 33.94864 | -118.40626 | 129 ft | 10 kts | 83° |
| 2026-04-26 01:12 | 33.94873 | -118.40542 | 129 ft | 10 kts | 83° |
| 2026-04-26 01:12 | 33.94881 | -118.40454 | 128 ft | 10 kts | 83° |
| 2026-04-26 01:12 | 33.94890 | -118.40364 | 128 ft | 11 kts | 83° |
| 2026-04-26 01:12 | 33.94900 | -118.40277 | 127 ft | 7 kts | 83° |
| 2026-04-26 01:13 | 33.94910 | -118.40211 | 126 ft | 7 kts | 65° |
| 2026-04-26 01:13 | 33.94955 | -118.40183 | 126 ft | 8 kts | 358° |
| 2026-04-26 01:13 | 33.95008 | -118.40203 | 126 ft | 7 kts | 296° |
| 2026-04-26 01:13 | 33.95009 | -118.40266 | 127 ft | 2 kts | 262° |
| 2026-04-26 01:14 | 33.95008 | -118.40278 | 127 ft | 12 kts | 262° |
| 2026-04-26 01:14 | 33.94963 | -118.40713 | 130 ft | 90 kts | 263° |
| 2026-04-26 01:14 | 33.94858 | -118.41722 | 130 ft | 151 kts | 263° |
| 2026-04-26 01:14 | 33.94729 | -118.43103 | 449 ft | 176 kts | 263° |
| 2026-04-26 01:15 | 33.94587 | -118.44606 | 1005 ft | 186 kts | 265° |
| 2026-04-26 01:15 | 33.94556 | -118.46104 | 1677 ft | 178 kts | 265° |
| 2026-04-26 01:15 | 33.94175 | -118.47583 | 1785 ft | 195 kts | 247° |
| 2026-04-26 01:15 | 33.93965 | -118.49234 | 1836 ft | 208 kts | 276° |
| 2026-04-26 01:16 | 33.94174 | -118.51036 | 2024 ft | 226 kts | 271° |
| 2026-04-26 01:16 | 33.94087 | -118.52934 | 2390 ft | 239 kts | 264° |